Time;durP1;ratioP1;P1;durP2;ratioP2;P2;SDS_P1;SDS_P2;PMS_P1;PMS_P2;Temp;Humidity;BMP_temperature;BMP_pressure;BME280_temperature;BME280_humidity;BME280_pressure;Samples;Min_cycle;Max_cycle;Signal;HPM_P1;HPM_P2
2022/03/16 00:01:20;;;;;;;16.33;8.75;;;4.30;99.90;;;;;;12382283;28;20060;-81
2022/03/16 00:07:23;;;;;;;13.35;7.85;;;4.20;99.90;;;;;;12383221;28;20046;-81
2022/03/16 00:13:25;;;;;;;19.23;8.90;;;4.30;99.90;;;;;;12385120;28;20506;-81
2022/03/16 00:19:27;;;;;;;17.08;8.77;;;4.30;99.90;;;;;;12385871;28;20050;-81
2022/03/16 00:25:29;;;;;;;14.68;9.38;;;4.30;99.90;;;;;;12389230;28;21263;-81
2022/03/16 00:31:32;;;;;;;17.67;9.57;;;4.20;99.90;;;;;;12383357;28;20842;-81
2022/03/16 00:37:34;;;;;;;21.92;11.48;;;4.20;99.90;;;;;;12392072;28;20486;-81
2022/03/16 00:43:36;;;;;;;28.48;11.55;;;4.20;99.90;;;;;;12389636;28;20050;-82
2022/03/16 00:49:38;;;;;;;25.38;11.13;;;4.10;99.90;;;;;;12394879;28;20050;-81
2022/03/16 00:55:40;;;;;;;17.30;9.55;;;4.00;99.90;;;;;;12400761;28;20057;-81
2022/03/16 01:01:41;;;;;;;16.80;10.45;;;3.80;99.90;;;;;;12393245;28;20050;-81
2022/03/16 01:07:44;;;;;;;15.68;9.98;;;3.80;99.90;;;;;;12429626;28;20118;-82
2022/03/16 01:13:46;;;;;;;19.70;10.93;;;3.70;99.90;;;;;;12413894;28;20129;-81
2022/03/16 01:19:48;;;;;;;22.38;11.63;;;3.70;99.90;;;;;;12389502;28;20049;-81
2022/03/16 01:25:50;;;;;;;19.30;11.77;;;3.70;99.90;;;;;;12394047;28;20054;-81
2022/03/16 01:31:55;;;;;;;22.17;11.95;;;3.80;99.90;;;;;;12389699;28;20125;-81
2022/03/16 01:37:57;;;;;;;23.80;12.77;;;3.70;99.90;;;;;;12391486;28;20050;-81
2022/03/16 01:43:59;;;;;;;21.95;12.13;;;3.60;99.90;;;;;;12396811;28;20141;-81
2022/03/16 01:50:01;;;;;;;22.05;12.32;;;3.50;99.90;;;;;;12397030;28;20073;-81
2022/03/16 01:56:03;;;;;;;21.08;13.00;;;3.50;99.90;;;;;;12386900;28;20096;-81
2022/03/16 02:02:06;;;;;;;25.77;14.40;;;3.60;99.90;;;;;;12386471;28;20049;-81
2022/03/16 02:08:10;;;;;;;22.80;14.02;;;3.70;99.90;;;;;;12394494;28;20054;-81
2022/03/16 02:14:12;;;;;;;23.35;13.60;;;3.80;99.90;;;;;;12391865;28;20061;-81
2022/03/16 02:20:14;;;;;;;19.98;12.05;;;3.70;99.90;;;;;;12386747;28;20105;-81
2022/03/16 02:26:16;;;;;;;22.15;11.98;;;3.70;99.90;;;;;;12387127;28;20152;-81
2022/03/16 02:32:18;;;;;;;22.23;12.80;;;3.70;99.90;;;;;;12386454;28;20053;-80
2022/03/16 02:38:22;;;;;;;24.45;12.50;;;3.70;99.90;;;;;;12383314;28;20120;-81
2022/03/16 02:44:24;;;;;;;18.80;11.82;;;3.50;99.90;;;;;;12388516;28;20050;-81
2022/03/16 02:50:26;;;;;;;19.98;11.45;;;3.60;99.90;;;;;;12388886;28;20042;-81
2022/03/16 02:56:28;;;;;;;20.23;10.75;;;3.40;99.90;;;;;;12400393;28;20395;-81
2022/03/16 03:02:31;;;;;;;17.58;11.20;;;3.20;99.90;;;;;;12399414;28;20035;-80
2022/03/16 03:08:33;;;;;;;22.40;13.30;;;3.10;99.90;;;;;;12387915;28;20050;-81
2022/03/16 03:14:35;;;;;;;20.98;13.05;;;3.00;99.90;;;;;;12385528;28;20057;-81
2022/03/16 03:20:36;;;;;;;24.58;13.60;;;2.90;99.90;;;;;;12389033;28;20054;-81
2022/03/16 03:26:38;;;;;;;22.42;13.20;;;2.90;99.90;;;;;;12391545;28;20133;-81
2022/03/16 03:32:41;;;;;;;22.10;11.90;;;2.80;99.90;;;;;;12385608;28;20050;-81
2022/03/16 03:38:43;;;;;;;22.25;13.65;;;2.80;99.90;;;;;;12378683;28;20072;-80
2022/03/16 03:44:44;;;;;;;20.35;13.23;;;2.80;99.90;;;;;;12385521;28;20509;-81
2022/03/16 03:50:46;;;;;;;21.10;13.00;;;2.80;99.90;;;;;;12388915;28;20064;-80
2022/03/16 03:56:48;;;;;;;24.08;13.45;;;2.60;99.90;;;;;;12381829;28;20119;-81
2022/03/16 04:02:51;;;;;;;23.58;13.95;;;2.70;99.90;;;;;;12385232;28;20054;-81
2022/03/16 04:08:53;;;;;;;20.48;12.95;;;2.70;99.90;;;;;;12384293;28;20520;-80
2022/03/16 04:14:54;;;;;;;22.17;14.10;;;2.70;99.90;;;;;;12397721;28;20103;-80
2022/03/16 04:20:56;;;;;;;21.58;13.75;;;2.70;99.90;;;;;;12385039;28;20050;-81
2022/03/16 04:26:58;;;;;;;27.83;14.98;;;2.70;99.90;;;;;;12383439;28;20052;-80
2022/03/16 04:33:00;;;;;;;23.83;14.32;;;2.60;99.90;;;;;;12391431;28;20041;-81
2022/03/16 04:39:02;;;;;;;23.15;13.75;;;2.60;99.90;;;;;;12409855;28;20089;-81
2022/03/16 04:45:04;;;;;;;27.25;13.40;;;2.50;99.90;;;;;;12394610;28;20552;-81
2022/03/16 04:51:06;;;;;;;22.00;12.90;;;2.20;99.90;;;;;;12392887;28;20197;-81
2022/03/16 04:57:09;;;;;;;22.83;12.85;;;2.30;99.90;;;;;;12380099;28;20109;-81
2022/03/16 05:03:11;;;;;;;22.13;13.88;;;2.10;99.90;;;;;;12385409;28;20455;-80
2022/03/16 05:09:13;;;;;;;23.33;13.13;;;2.10;99.90;;;;;;12379796;28;20165;-80
2022/03/16 05:15:17;;;;;;;22.02;13.32;;;2.10;99.90;;;;;;12383173;28;20666;-80
2022/03/16 05:21:19;;;;;;;25.13;13.43;;;2.10;99.90;;;;;;12384781;28;20061;-81
2022/03/16 05:27:21;;;;;;;30.63;16.52;;;2.10;99.90;;;;;;12431179;23;20058;-37
2022/03/16 05:33:24;;;;;;;31.20;17.05;;;1.90;99.90;;;;;;12428662;28;20054;-36
2022/03/16 05:39:26;;;;;;;24.52;14.43;;;1.90;99.90;;;;;;12431182;28;20450;-39
2022/03/16 05:45:28;;;;;;;26.40;15.38;;;2.00;99.90;;;;;;12432824;28;20046;-36
2022/03/16 05:51:30;;;;;;;23.45;14.45;;;2.00;99.90;;;;;;12429117;28;20781;-36
2022/03/16 05:57:32;;;;;;;30.30;16.60;;;1.90;99.90;;;;;;12428063;28;20058;-39
2022/03/16 06:03:34;;;;;;;30.45;14.70;;;2.00;99.90;;;;;;12433041;28;20050;-36
2022/03/16 06:09:36;;;;;;;24.65;14.32;;;2.30;99.90;;;;;;12430555;28;20094;-37
2022/03/16 06:15:44;;;;;;;24.38;13.27;;;2.30;99.90;;;;;;12436328;28;20064;-37
2022/03/16 06:21:46;;;;;;;25.97;14.17;;;2.20;99.90;;;;;;12433872;28;20045;-36
2022/03/16 06:27:48;;;;;;;16.92;11.85;;;2.30;99.90;;;;;;12433487;28;20149;-36
2022/03/16 06:33:50;;;;;;;22.35;13.25;;;2.30;99.90;;;;;;12437715;28;20160;-38
2022/03/16 06:39:52;;;;;;;33.53;17.48;;;2.30;99.90;;;;;;12441349;28;20053;-38
2022/03/16 06:45:55;;;;;;;41.03;22.45;;;2.30;99.90;;;;;;12436328;28;20049;-38
2022/03/16 06:51:57;;;;;;;50.13;25.17;;;2.80;99.90;;;;;;12439471;28;20609;-37
2022/03/16 06:57:59;;;;;;;60.90;27.88;;;3.10;99.90;;;;;;12438724;28;20461;-38
2022/03/16 07:04:01;;;;;;;52.92;28.25;;;3.70;99.90;;;;;;12445315;28;20144;-36
2022/03/16 07:10:03;;;;;;;54.22;27.08;;;4.10;99.90;;;;;;12443241;28;20646;-37
2022/03/16 07:16:05;;;;;;;52.10;25.02;;;4.40;99.90;;;;;;12440686;28;20702;-37
2022/03/16 07:22:15;;;;;;;54.13;26.20;;;4.80;99.90;;;;;;12442899;28;20050;-37
2022/03/16 07:28:19;;;;;;;46.40;23.75;;;5.10;99.90;;;;;;12441586;28;20445;-39
2022/03/16 07:34:22;;;;;;;39.53;22.10;;;5.20;99.90;;;;;;12446453;28;20052;-39
2022/03/16 07:40:24;;;;;;;42.75;23.45;;;5.40;99.90;;;;;;12443598;28;20100;-37
2022/03/16 07:46:27;;;;;;;38.17;20.80;;;5.70;99.90;;;;;;12446992;28;20069;-39
2022/03/16 07:52:29;;;;;;;36.88;21.05;;;6.00;99.90;;;;;;12445689;28;20049;-37
2022/03/16 07:58:31;;;;;;;32.03;19.65;;;6.50;99.90;;;;;;12444414;28;20060;-39
2022/03/16 08:04:32;;;;;;;31.52;18.48;;;7.00;99.90;;;;;;12442925;28;20169;-37
2022/03/16 08:10:41;;;;;;;27.73;16.63;;;7.60;99.90;;;;;;12446170;28;20046;-38
2022/03/16 08:16:43;;;;;;;25.52;15.43;;;8.00;99.90;;;;;;12444159;28;20497;-39
2022/03/16 08:22:47;;;;;;;26.90;15.27;;;8.10;99.90;;;;;;12442048;28;20053;-39
2022/03/16 08:28:50;;;;;;;22.20;14.10;;;8.30;99.90;;;;;;12444363;28;20053;-37
2022/03/16 08:34:53;;;;;;;25.27;16.05;;;8.60;99.90;;;;;;12441176;28;20058;-39
2022/03/16 08:40:54;;;;;;;28.48;17.33;;;8.60;99.90;;;;;;12447267;28;20053;-37
2022/03/16 08:46:57;;;;;;;29.55;18.80;;;8.70;99.90;;;;;;12442484;28;20394;-40
2022/03/16 08:52:58;;;;;;;27.55;18.05;;;8.50;99.90;;;;;;12441159;28;20054;-39
2022/03/16 08:59:00;;;;;;;24.85;16.85;;;8.50;99.90;;;;;;12447580;28;20053;-37
2022/03/16 09:05:03;;;;;;;30.05;18.75;;;8.70;99.90;;;;;;12448505;28;20605;-39
2022/03/16 09:11:05;;;;;;;26.60;17.05;;;8.90;99.90;;;;;;12451523;28;20080;-39
2022/03/16 09:17:10;;;;;;;30.05;18.50;;;9.20;99.90;;;;;;12444362;28;20053;-39
2022/03/16 09:23:12;;;;;;;29.52;17.25;;;9.30;99.90;;;;;;12444219;28;20072;-38
2022/03/16 09:29:16;;;;;;;28.05;17.75;;;9.30;99.90;;;;;;12445702;28;20046;-40
2022/03/16 09:35:18;;;;;;;25.15;16.00;;;9.70;99.90;;;;;;12446400;28;20489;-40
2022/03/16 09:41:21;;;;;;;23.70;16.40;;;10.10;99.90;;;;;;12447074;28;20103;-39
2022/03/16 09:47:23;;;;;;;22.00;13.52;;;10.50;99.90;;;;;;12447715;28;20568;-38
2022/03/16 09:53:26;;;;;;;21.35;14.00;;;10.70;99.90;;;;;;12447250;28;20050;-38
2022/03/16 09:59:28;;;;;;;21.40;13.43;;;10.90;99.90;;;;;;12446764;28;20053;-37
2022/03/16 10:05:31;;;;;;;25.50;15.05;;;10.90;99.90;;;;;;12444453;28;20099;-40
2022/03/16 10:18:04;;;;;;;21.80;14.35;;;11.40;99.90;;;;;;12441843;28;20057;-40
2022/03/16 10:24:06;;;;;;;25.00;15.55;;;11.40;99.90;;;;;;12441889;28;20119;-40
2022/03/16 10:30:08;;;;;;;24.80;15.25;;;11.60;99.90;;;;;;12443718;28;20481;-38
2022/03/16 10:36:16;;;;;;;24.30;15.10;;;11.80;99.90;;;;;;12442019;28;20053;-39
2022/03/16 10:48:59;;;;;;;22.77;14.40;;;12.50;99.90;;;;;;12440906;28;20046;-38
2022/03/16 10:55:04;;;;;;;20.95;12.73;;;12.10;99.90;;;;;;12447002;28;20539;-40
2022/03/16 11:01:06;;;;;;;22.48;13.18;;;12.00;99.90;;;;;;12445199;28;20551;-40
2022/03/16 11:07:09;;;;;;;18.73;12.52;;;12.20;99.90;;;;;;12441582;28;20088;-39
2022/03/16 11:13:32;;;;;;;23.73;12.47;;;12.30;99.90;;;;;;12444534;28;20100;-38
2022/03/16 11:19:38;;;;;;;23.73;11.93;;;12.80;99.90;;;;;;12445888;28;20307;-40
2022/03/16 11:25:58;;;;;;;18.95;10.52;;;12.60;99.90;;;;;;12444639;28;20486;-38
2022/03/16 11:32:18;;;;;;;19.05;10.75;;;12.30;99.90;;;;;;12438722;28;20046;-38
2022/03/16 11:38:21;;;;;;;18.92;10.95;;;12.70;99.90;;;;;;12439448;28;20104;-38
2022/03/16 11:44:26;;;;;;;18.15;10.85;;;12.60;99.90;;;;;;12441881;28;20049;-38
2022/03/16 11:50:29;;;;;;;16.90;10.70;;;12.50;99.90;;;;;;12442643;28;20069;-39
2022/03/16 11:56:39;;;;;;;16.55;9.88;;;12.50;99.90;;;;;;12440943;28;20188;-39
2022/03/16 12:02:41;;;;;;;15.75;9.90;;;12.60;99.90;;;;;;12439863;28;20087;-38
2022/03/16 12:08:59;;;;;;;19.23;10.13;;;12.80;99.90;;;;;;12440923;28;20041;-38
2022/03/16 12:15:09;;;;;;;16.08;9.07;;;12.90;99.90;;;;;;12439398;28;20050;-38
2022/03/16 12:21:13;;;;;;;15.80;8.55;;;12.80;99.90;;;;;;12440682;28;20045;-42
2022/03/16 12:33:55;;;;;;;14.77;8.77;;;12.70;99.90;;;;;;12449442;28;20170;-40
2022/03/16 12:39:57;;;;;;;15.20;9.43;;;13.30;99.90;;;;;;12450237;28;20073;-41
2022/03/16 12:46:08;;;;;;;17.20;9.40;;;13.30;99.90;;;;;;12447128;28;20050;-39
2022/03/16 12:52:11;;;;;;;13.95;7.55;;;13.40;99.90;;;;;;12449697;28;20089;-38
2022/03/16 12:58:23;;;;;;;12.07;6.78;;;13.60;99.90;;;;;;12450685;28;20454;-38
2022/03/16 13:04:26;;;;;;;14.65;7.10;;;13.90;99.90;;;;;;12451580;28;20053;-41
2022/03/16 13:10:29;;;;;;;10.70;7.10;;;13.90;99.90;;;;;;12448107;28;20488;-40
2022/03/16 13:16:39;;;;;;;10.25;6.00;;;14.00;99.90;;;;;;12446016;28;20049;-40
2022/03/16 13:22:41;;;;;;;12.38;7.45;;;13.80;99.90;;;;;;12445835;28;20474;-38
2022/03/16 13:28:43;;;;;;;11.98;7.55;;;13.90;99.90;;;;;;12447698;28;20098;-38
2022/03/16 13:34:49;;;;;;;10.57;6.85;;;13.70;99.90;;;;;;12448067;28;20042;-40
2022/03/16 13:40:52;;;;;;;14.60;9.40;;;13.80;99.90;;;;;;12449723;28;20042;-40
2022/03/16 13:46:54;;;;;;;12.98;7.97;;;13.70;99.90;;;;;;12446191;28;21140;-39
2022/03/16 13:53:17;;;;;;;13.43;8.82;;;13.50;99.90;;;;;;12446607;28;20057;-40
2022/03/16 13:59:20;;;;;;;18.98;9.00;;;13.50;99.90;;;;;;12449407;28;20151;-39
2022/03/16 14:05:23;;;;;;;15.55;9.00;;;13.50;99.90;;;;;;12448497;28;20057;-39
2022/03/16 14:11:33;;;;;;;15.95;9.38;;;13.60;99.90;;;;;;12447880;28;20054;-40
2022/03/16 14:17:55;;;;;;;16.85;9.25;;;13.50;99.90;;;;;;12447196;28;20149;-37
2022/03/16 14:23:58;;;;;;;18.20;9.23;;;13.30;99.90;;;;;;12451209;28;20091;-40
2022/03/16 14:30:01;;;;;;;14.07;8.60;;;13.40;99.90;;;;;;12447263;28;20152;-37
2022/03/16 14:36:03;;;;;;;16.23;8.05;;;13.40;99.90;;;;;;12447656;28;21000;-38
2022/03/16 14:42:05;;;;;;;15.25;8.90;;;13.70;99.90;;;;;;12450071;28;20058;-38
2022/03/16 14:48:09;;;;;;;15.95;8.50;;;13.80;99.90;;;;;;12446305;28;20077;-40
2022/03/16 14:54:11;;;;;;;12.27;7.55;;;13.60;99.90;;;;;;12445036;28;20050;-40
2022/03/16 15:00:18;;;;;;;12.10;8.15;;;13.60;99.90;;;;;;12445986;28;20676;-37
2022/03/16 15:06:21;;;;;;;13.80;9.05;;;13.50;99.90;;;;;;12446614;28;20052;-38
2022/03/16 15:12:26;;;;;;;16.42;8.45;;;13.60;99.90;;;;;;12444387;28;20046;-38
2022/03/16 15:18:28;;;;;;;16.27;8.77;;;13.30;99.90;;;;;;12442612;28;20065;-40
2022/03/16 15:24:30;;;;;;;14.13;9.07;;;13.00;99.90;;;;;;12444223;28;20060;-39
2022/03/16 15:30:33;;;;;;;18.30;9.57;;;12.80;99.90;;;;;;12443324;28;20402;-39
2022/03/16 15:36:42;;;;;;;16.98;9.45;;;12.60;99.90;;;;;;12444931;28;20045;-40
2022/03/16 15:42:48;;;;;;;14.05;8.40;;;12.50;99.90;;;;;;12444170;28;20049;-40
2022/03/16 15:48:51;;;;;;;17.58;8.82;;;12.40;99.90;;;;;;12447018;28;20052;-37
2022/03/16 15:54:55;;;;;;;14.52;8.80;;;12.30;99.90;;;;;;12437969;28;20042;-37
2022/03/16 16:00:58;;;;;;;16.70;9.02;;;12.20;99.90;;;;;;12437149;28;20046;-39
2022/03/16 16:07:00;;;;;;;16.08;8.35;;;12.10;99.90;;;;;;12443505;28;20673;-37
2022/03/16 16:13:02;;;;;;;15.65;7.97;;;12.10;99.90;;;;;;12442726;28;20555;-37
2022/03/16 16:19:05;;;;;;;15.02;8.48;;;12.10;99.90;;;;;;12442327;28;20064;-40
2022/03/16 16:25:09;;;;;;;16.90;8.52;;;12.00;99.90;;;;;;12435205;28;20077;-39
2022/03/16 16:31:12;;;;;;;12.43;7.30;;;11.90;99.90;;;;;;12441045;28;20696;-36
2022/03/16 16:37:16;;;;;;;14.93;8.20;;;11.80;99.90;;;;;;12439820;28;20087;-39
2022/03/16 16:43:19;;;;;;;16.52;8.93;;;11.70;99.90;;;;;;12437935;28;20077;-41
2022/03/16 16:49:21;;;;;;;14.68;8.68;;;11.70;99.90;;;;;;12441954;28;20045;-37
2022/03/16 16:55:25;;;;;;;13.48;8.05;;;11.50;99.90;;;;;;12442409;28;20052;-37
2022/03/16 17:01:28;;;;;;;13.95;8.50;;;11.40;99.90;;;;;;12440182;28;20045;-37
2022/03/16 17:07:30;;;;;;;17.33;8.77;;;11.20;99.90;;;;;;12444931;28;20136;-37
2022/03/16 17:13:32;;;;;;;16.17;9.57;;;11.10;99.90;;;;;;12439413;28;20056;-39
2022/03/16 17:19:34;;;;;;;16.67;9.40;;;10.90;99.90;;;;;;12451866;28;20057;-37
2022/03/16 17:33:02;;;;;;;20.95;10.55;;;10.90;99.90;;;;;;12427901;28;20061;-37
2022/03/16 17:39:05;;;;;;;20.38;11.25;;;10.90;99.90;;;;;;12447652;28;20130;-39
2022/03/16 17:51:29;;;;;;;20.25;12.73;;;10.70;99.90;;;;;;12449886;28;20049;-39
2022/03/16 17:57:30;;;;;;;27.85;16.23;;;10.80;99.90;;;;;;12446216;28;20045;-37
2022/03/16 18:03:33;;;;;;;20.60;12.05;;;10.70;99.90;;;;;;12447878;28;20488;-38
2022/03/16 18:12:58;;;;;;;18.67;12.70;;;10.70;99.90;;;;;;12448191;28;20571;-42
2022/03/16 18:16:02;;;;;;;21.60;12.63;;;10.70;99.90;;;;;;12444511;28;20064;-40
2022/03/16 18:28:34;;;;;;;21.50;13.18;;;10.50;99.90;;;;;;12442704;28;20049;-40
2022/03/16 18:34:36;;;;;;;24.38;13.20;;;10.40;99.90;;;;;;12442009;28;20592;-38
2022/03/16 18:40:40;;;;;;;19.58;13.05;;;10.40;99.90;;;;;;12449741;28;20068;-39
2022/03/16 18:46:42;;;;;;;24.02;14.05;;;10.40;99.90;;;;;;12444858;28;20077;-38
2022/03/16 18:52:44;;;;;;;23.23;14.35;;;10.30;99.90;;;;;;12444048;28;20057;-37
2022/03/16 18:58:46;;;;;;;23.20;13.90;;;10.20;99.90;;;;;;12443833;28;20089;-38
2022/03/16 19:04:49;;;;;;;18.35;12.80;;;10.10;99.90;;;;;;12449793;28;20144;-37
2022/03/16 19:13:45;;;;;;;20.27;13.90;;;10.10;99.90;;;;;;12443914;28;20077;-37
2022/03/16 19:17:13;;;;;;;21.30;13.60;;;10.10;99.90;;;;;;12440270;28;20210;-38
2022/03/16 19:23:20;;;;;;;19.77;14.05;;;10.10;99.90;;;;;;12443819;28;20964;-37
2022/03/16 19:29:22;;;;;;;21.65;13.95;;;10.00;99.90;;;;;;12437997;28;20752;-39
2022/03/16 19:35:27;;;;;;;22.70;14.07;;;10.00;99.90;;;;;;12439585;28;20046;-38
2022/03/16 19:41:32;;;;;;;22.88;13.63;;;9.90;99.90;;;;;;12438726;28;20255;-39
2022/03/16 19:47:35;;;;;;;24.55;14.70;;;9.90;99.90;;;;;;12443473;28;20394;-38
2022/03/16 19:53:38;;;;;;;21.73;14.20;;;9.80;99.90;;;;;;12445677;28;20076;-39
2022/03/16 19:59:41;;;;;;;23.95;14.95;;;9.70;99.90;;;;;;12438918;28;20065;-37
2022/03/16 20:05:45;;;;;;;24.48;15.02;;;9.60;99.90;;;;;;12438668;28;20133;-37
2022/03/16 20:11:47;;;;;;;24.92;15.18;;;9.50;99.90;;;;;;12442505;28;20477;-38
2022/03/16 20:17:50;;;;;;;21.00;15.10;;;9.40;99.90;;;;;;12447369;28;20417;-37
2022/03/16 20:23:57;;;;;;;25.70;15.93;;;9.40;99.90;;;;;;12439832;28;20081;-39
2022/03/16 20:29:59;;;;;;;22.98;15.90;;;9.40;99.90;;;;;;12447277;28;20049;-37
2022/03/16 20:36:01;;;;;;;25.20;15.65;;;9.40;99.90;;;;;;12441259;28;20054;-37
2022/03/16 20:42:03;;;;;;;25.27;16.65;;;9.50;99.90;;;;;;12441044;28;20050;-37
2022/03/16 20:48:06;;;;;;;29.55;16.40;;;9.40;99.90;;;;;;12441547;28;20452;-39
2022/03/16 20:54:08;;;;;;;24.85;16.23;;;9.50;99.90;;;;;;12450429;28;20091;-39
2022/03/16 21:06:35;;;;;;;30.42;17.15;;;9.60;99.90;;;;;;12446351;28;20061;-37
2022/03/16 21:12:37;;;;;;;27.13;16.35;;;9.60;99.90;;;;;;12446215;28;20049;-39
2022/03/16 21:18:41;;;;;;;24.02;15.80;;;9.60;99.90;;;;;;12451402;28;20486;-37
2022/03/16 21:24:45;;;;;;;29.45;16.63;;;9.70;99.90;;;;;;12449873;28;20550;-39
2022/03/16 21:30:47;;;;;;;24.45;16.35;;;9.60;99.90;;;;;;12444976;28;20081;-38
2022/03/16 21:36:49;;;;;;;27.75;17.42;;;9.60;99.90;;;;;;12447825;28;20081;-40
2022/03/16 21:42:51;;;;;;;27.55;17.40;;;9.60;99.90;;;;;;12446857;28;20076;-38
2022/03/16 21:48:54;;;;;;;28.92;16.23;;;9.50;99.90;;;;;;12445550;28;20141;-36
2022/03/16 21:54:56;;;;;;;27.85;17.10;;;9.50;99.90;;;;;;12442508;28;20052;-39
2022/03/16 22:00:58;;;;;;;26.33;16.63;;;9.50;99.90;;;;;;12440716;28;20098;-37
2022/03/16 22:07:09;;;;;;;26.55;16.77;;;9.50;99.90;;;;;;12444909;28;20145;-36
2022/03/16 22:13:12;;;;;;;25.65;15.77;;;9.40;99.90;;;;;;12445861;28;20066;-37
2022/03/16 22:19:14;;;;;;;25.15;15.93;;;9.50;99.90;;;;;;12449703;28;20054;-39
2022/03/16 22:25:20;;;;;;;24.17;16.38;;;9.50;99.90;;;;;;12446384;28;20045;-39
2022/03/16 22:31:22;;;;;;;27.77;16.52;;;9.40;99.90;;;;;;12442043;28;20089;-37
2022/03/16 22:37:25;;;;;;;25.42;15.60;;;9.50;99.90;;;;;;12445442;28;20098;-37
2022/03/16 22:43:27;;;;;;;23.77;14.82;;;9.50;99.90;;;;;;12445918;28;20060;-39
2022/03/16 22:49:29;;;;;;;26.85;15.55;;;9.40;99.90;;;;;;12444493;28;20054;-37
2022/03/16 22:55:31;;;;;;;21.70;14.13;;;9.40;99.90;;;;;;12444782;28;20099;-38
2022/03/16 23:01:34;;;;;;;20.90;13.38;;;9.40;99.90;;;;;;12443062;28;20054;-37
2022/03/16 23:07:35;;;;;;;22.42;13.30;;;9.30;99.90;;;;;;12442003;28;20047;-39
2022/03/16 23:13:38;;;;;;;21.75;13.80;;;9.30;99.90;;;;;;12443338;28;20132;-39
2022/03/16 23:19:40;;;;;;;22.75;13.27;;;9.20;99.90;;;;;;12445383;28;20554;-37
2022/03/16 23:25:42;;;;;;;19.48;12.95;;;9.20;99.90;;;;;;12443145;28;20046;-39
2022/03/16 23:31:44;;;;;;;18.73;11.75;;;9.10;99.90;;;;;;12439878;28;20058;-37
2022/03/16 23:37:46;;;;;;;20.15;12.57;;;9.00;99.90;;;;;;12447404;28;20096;-37
2022/03/16 23:43:48;;;;;;;18.13;12.65;;;9.00;99.90;;;;;;12442376;28;20427;-39
2022/03/16 23:49:51;;;;;;;18.55;12.27;;;9.00;99.90;;;;;;12444402;28;20099;-38
2022/03/16 23:55:52;;;;;;;16.63;11.82;;;9.10;99.90;;;;;;12439274;28;20073;-38
